Time;durP1;ratioP1;P1;durP2;ratioP2;P2;SDS_P1;SDS_P2;PMS_P1;PMS_P2;Temp;Humidity;BMP_temperature;BMP_pressure;BME280_temperature;BME280_humidity;BME280_pressure;Samples;Min_cycle;Max_cycle;Signal;HPM_P1;HPM_P2
2022/03/18 00:02:23;;;;;;;373.25;68.30;;;7.40;99.90;;;6.26;98.74;98941.00;5011568;28;20413;-71
2022/03/18 00:04:50;;;;;;;397.52;73.88;;;7.40;99.90;;;6.26;98.72;98935.72;5011742;28;20501;-71
2022/03/18 00:07:17;;;;;;;397.40;73.95;;;7.40;99.90;;;6.25;98.75;98944.63;5011835;28;20495;-71
2022/03/18 00:09:43;;;;;;;372.67;67.93;;;7.40;99.90;;;6.22;98.80;98941.38;5012118;28;20456;-71
2022/03/18 00:12:10;;;;;;;380.75;67.53;;;7.40;99.90;;;6.22;98.80;98940.56;5012228;28;20405;-71
2022/03/18 00:14:40;;;;;;;382.43;72.23;;;7.40;99.90;;;6.21;98.68;98944.19;5012403;28;20464;-71
2022/03/18 00:17:06;;;;;;;363.38;71.30;;;7.30;99.90;;;6.19;98.97;98948.81;5012566;28;20454;-71
2022/03/18 00:19:33;;;;;;;351.77;64.55;;;7.40;99.90;;;6.17;98.97;98954.25;5012342;28;20412;-71
2022/03/18 00:22:01;;;;;;;370.30;67.13;;;7.30;99.90;;;6.18;98.97;98945.38;5011910;28;20529;-70
2022/03/18 00:24:27;;;;;;;368.13;64.97;;;7.30;99.90;;;6.19;98.88;98946.19;5012287;28;20952;-71
2022/03/18 00:26:53;;;;;;;381.23;72.43;;;7.30;99.90;;;6.19;98.96;98954.06;5012344;28;20393;-71
2022/03/18 00:29:19;;;;;;;340.45;66.05;;;7.30;99.90;;;6.18;99.01;98949.81;5012052;28;20809;-71
2022/03/18 00:31:46;;;;;;;347.42;62.40;;;7.30;99.90;;;6.19;98.99;98951.44;5011685;28;20400;-71
2022/03/18 00:34:12;;;;;;;356.20;67.38;;;7.40;99.90;;;6.20;99.01;98943.38;5012116;28;20437;-71
2022/03/18 00:36:38;;;;;;;387.77;71.80;;;7.40;99.90;;;6.20;99.16;98945.19;5012158;28;20440;-71
2022/03/18 00:39:05;;;;;;;357.70;60.90;;;7.30;99.90;;;6.19;98.98;98949.63;5011593;28;20409;-71
2022/03/18 00:41:31;;;;;;;351.80;63.70;;;7.40;99.90;;;6.19;99.12;98946.19;5010606;28;20429;-72
2022/03/18 00:43:57;;;;;;;322.95;57.38;;;7.30;99.90;;;6.19;99.39;98951.44;5011175;28;20404;-71
2022/03/18 00:46:24;;;;;;;319.65;61.22;;;7.30;99.90;;;6.19;99.16;98949.63;5011152;28;20423;-72
2022/03/18 00:54:21;;;;;;;317.25;62.00;;;7.30;99.90;;;6.21;99.36;98957.34;5011026;28;20436;-71
2022/03/18 00:56:47;;;;;;;340.63;64.63;;;7.40;99.90;;;6.21;99.48;98950.25;5011399;28;20404;-71
2022/03/18 00:59:13;;;;;;;350.13;71.80;;;7.30;99.90;;;6.17;99.37;98950.81;5011688;28;20416;-72
2022/03/18 01:01:39;;;;;;;357.55;63.72;;;7.20;99.90;;;6.13;99.31;98949.56;5011155;28;20424;-72
2022/03/18 01:04:07;;;;;;;340.05;60.53;;;7.30;99.90;;;6.12;99.38;98948.72;5025783;23;20413;-79
2022/03/18 01:06:34;;;;;;;320.25;64.95;;;7.30;99.90;;;6.12;99.43;98948.72;5020377;28;20782;-79
2022/03/18 01:09:02;;;;;;;296.60;55.33;;;7.30;99.90;;;6.12;99.55;98954.00;5011485;28;20973;-79
2022/03/18 01:11:28;;;;;;;321.58;60.20;;;7.30;99.90;;;6.14;99.47;98956.44;5011158;28;20404;-79
2022/03/18 01:13:54;;;;;;;318.08;54.95;;;7.30;99.90;;;6.11;99.55;98960.25;5011320;28;20917;-80
2022/03/18 01:16:20;;;;;;;319.30;59.53;;;7.30;99.90;;;6.14;99.59;98954.63;5011520;28;20412;-80
2022/03/18 01:18:46;;;;;;;344.05;58.80;;;7.30;99.90;;;6.15;99.47;98955.44;5011469;28;20408;-81
2022/03/18 01:21:13;;;;;;;314.00;55.77;;;7.30;99.90;;;6.14;99.72;98953.81;5010145;28;20929;-81
2022/03/18 01:23:39;;;;;;;301.42;55.10;;;7.30;99.90;;;6.12;99.65;98959.25;5011292;28;20419;-80
2022/03/18 01:26:05;;;;;;;286.27;55.38;;;7.30;99.90;;;6.12;99.55;98961.06;5010701;28;20418;-80
2022/03/18 01:28:31;;;;;;;302.05;57.42;;;7.30;99.90;;;6.09;99.77;98951.72;5011384;28;20762;-80
2022/03/18 01:30:57;;;;;;;316.30;58.27;;;7.20;99.90;;;6.06;99.68;98952.09;5010822;28;20403;-80
2022/03/18 01:33:23;;;;;;;298.15;54.55;;;7.20;99.90;;;6.08;99.66;98959.81;5011251;28;20394;-80
2022/03/18 01:35:49;;;;;;;292.70;54.27;;;7.20;99.90;;;6.08;99.78;98958.00;5009664;28;20413;-80
2022/03/18 01:38:17;;;;;;;291.60;59.08;;;7.20;99.90;;;6.07;99.72;98958.19;5011037;28;20766;-80
2022/03/18 01:40:42;;;;;;;315.98;59.65;;;7.20;99.90;;;6.07;99.80;98958.19;5010455;28;20447;-80
2022/03/18 01:43:10;;;;;;;303.03;53.87;;;7.20;99.90;;;6.05;99.75;98958.34;5010844;28;20408;-79
2022/03/18 01:45:38;;;;;;;288.00;53.85;;;7.20;99.90;;;6.04;99.77;98956.72;5010880;28;20429;-80
2022/03/18 01:48:05;;;;;;;276.83;52.13;;;7.20;99.90;;;6.06;99.73;98960.00;5010967;28;20429;-80
2022/03/18 01:50:32;;;;;;;303.63;56.17;;;7.20;99.90;;;6.02;99.81;98963.16;5010277;28;20539;-81
2022/03/18 01:53:00;;;;;;;274.17;51.00;;;7.10;99.90;;;6.01;99.94;98972.88;5010401;28;20491;-80
2022/03/18 01:55:28;;;;;;;256.88;48.67;;;7.20;99.90;;;6.03;99.87;98972.66;5010778;28;20471;-79
2022/03/18 01:57:55;;;;;;;273.33;45.90;;;7.20;99.90;;;6.04;99.99;98969.88;5009677;28;20448;-80
2022/03/18 02:00:21;;;;;;;265.83;50.22;;;7.20;99.90;;;6.06;99.80;98969.69;5010247;28;20408;-80
2022/03/18 02:02:48;;;;;;;295.75;55.58;;;7.20;99.90;;;6.00;99.96;98970.44;5010698;28;20409;-80
2022/03/18 02:05:14;;;;;;;310.75;54.47;;;7.10;99.90;;;6.01;99.66;98970.25;5010483;28;20499;-80
2022/03/18 02:07:40;;;;;;;299.37;54.50;;;7.20;99.90;;;6.00;99.98;98965.16;5010823;28;20413;-80
2022/03/18 02:10:08;;;;;;;264.30;48.38;;;7.10;99.90;;;5.99;100.00;98969.59;5010543;28;20440;-79
2022/03/18 02:12:35;;;;;;;260.45;49.42;;;7.10;99.90;;;6.01;100.00;98977.31;5010485;28;20976;-79
2022/03/18 02:15:02;;;;;;;283.23;52.17;;;7.10;99.90;;;5.99;99.96;98980.13;5010607;28;20420;-81
2022/03/18 02:17:28;;;;;;;262.63;49.92;;;7.10;99.90;;;5.95;100.00;98973.59;5010540;28;20492;-81
2022/03/18 02:19:54;;;;;;;273.83;50.28;;;7.10;99.90;;;5.96;100.00;98972.59;5010346;28;20512;-80
2022/03/18 02:22:22;;;;;;;262.65;55.90;;;7.10;99.90;;;5.94;99.97;98971.16;5009848;28;20421;-80
2022/03/18 02:24:51;;;;;;;287.90;50.60;;;7.10;99.90;;;5.95;100.00;98970.13;5010589;28;20886;-80
2022/03/18 02:27:18;;;;;;;265.55;54.03;;;7.10;99.90;;;5.95;100.00;98978.03;5010560;28;20414;-80
2022/03/18 02:29:45;;;;;;;299.05;57.15;;;7.10;99.90;;;5.95;100.00;98972.75;5010495;28;20782;-80
2022/03/18 02:32:13;;;;;;;280.98;49.22;;;7.10;99.90;;;5.93;100.00;98987.94;5009937;28;20427;-80
2022/03/18 02:34:41;;;;;;;274.90;56.47;;;7.10;99.90;;;5.92;100.00;98988.91;5010345;28;20471;-80
2022/03/18 02:37:07;;;;;;;288.17;52.03;;;7.10;99.90;;;5.91;100.00;98993.34;5010495;28;20459;-79
2022/03/18 02:39:34;;;;;;;272.50;52.30;;;7.10;99.90;;;5.91;100.00;98985.47;5010434;28;20413;-79
2022/03/18 02:42:02;;;;;;;271.37;51.10;;;7.10;99.90;;;5.89;100.00;98987.47;5030854;28;20975;-78
2022/03/18 02:44:28;;;;;;;252.63;48.35;;;7.00;99.90;;;5.89;100.00;98990.09;5009183;28;20441;-78
2022/03/18 02:46:55;;;;;;;281.37;50.33;;;7.10;99.90;;;5.87;100.00;98989.41;5010448;28;20404;-78
2022/03/18 02:49:21;;;;;;;276.85;52.88;;;7.00;99.90;;;5.85;100.00;98983.53;5010275;28;20398;-79
2022/03/18 02:51:47;;;;;;;257.85;46.17;;;7.00;99.90;;;5.85;100.00;98994.06;5010159;28;20487;-80
2022/03/18 02:54:13;;;;;;;238.13;41.10;;;7.00;99.90;;;5.87;100.00;98993.84;5010238;28;20885;-80
2022/03/18 02:56:39;;;;;;;247.45;46.50;;;7.00;99.90;;;5.90;100.00;98996.16;5009207;28;20424;-80
2022/03/18 02:59:07;;;;;;;236.37;42.97;;;7.00;99.90;;;5.89;100.00;98997.97;5010324;28;20491;-80
2022/03/18 03:01:33;;;;;;;269.92;48.92;;;7.10;99.90;;;5.88;100.00;98996.34;5008559;28;20493;-80
2022/03/18 03:03:59;;;;;;;260.05;47.55;;;7.00;99.90;;;5.89;100.00;99005.84;5010110;28;20942;-80
2022/03/18 03:09:12;;;;;;;254.30;46.97;;;7.00;99.90;;;5.85;100.00;99007.19;5013811;28;20464;-80
2022/03/18 03:11:38;;;;;;;257.75;48.90;;;7.00;99.90;;;5.87;100.00;99014.88;5013536;28;20408;-80
2022/03/18 03:14:04;;;;;;;278.92;50.67;;;7.00;99.90;;;5.85;100.00;99012.44;5013705;28;20405;-80
2022/03/18 03:16:31;;;;;;;274.30;48.70;;;7.00;99.90;;;5.84;100.00;99016.88;5013644;28;20480;-80
2022/03/18 03:18:57;;;;;;;263.23;46.20;;;7.00;99.90;;;5.83;100.00;99015.25;5013661;28;20409;-81
2022/03/18 03:21:23;;;;;;;268.57;47.63;;;7.00;99.90;;;5.83;100.00;99017.06;5012104;28;20788;-80
2022/03/18 03:23:49;;;;;;;287.27;52.88;;;7.00;99.90;;;5.83;100.00;99019.69;5013619;28;20886;-80
2022/03/18 03:26:15;;;;;;;256.52;45.95;;;7.00;99.90;;;5.79;100.00;99021.03;5013588;28;20415;-80
2022/03/18 03:28:41;;;;;;;250.68;44.83;;;7.00;99.90;;;5.78;100.00;99022.06;5013556;28;20807;-80
2022/03/18 03:31:08;;;;;;;257.70;45.50;;;6.90;99.90;;;5.78;100.00;99035.19;5012762;28;20968;-80
2022/03/18 03:33:35;;;;;;;243.05;44.85;;;6.90;99.90;;;5.78;100.00;99029.94;5013021;28;20527;-80
2022/03/18 03:36:01;;;;;;;253.63;49.53;;;6.90;99.90;;;5.77;100.00;99031.75;5013083;28;20394;-80
2022/03/18 03:38:27;;;;;;;260.38;48.05;;;6.90;99.90;;;5.76;100.00;99037.16;5013421;28;20405;-81
2022/03/18 03:40:53;;;;;;;248.02;42.75;;;6.90;99.90;;;5.74;100.00;99031.28;5012870;28;20427;-80
2022/03/18 03:43:19;;;;;;;234.57;41.15;;;6.90;99.90;;;5.76;100.00;99042.44;5013266;28;20765;-80
2022/03/18 03:45:45;;;;;;;238.63;43.75;;;6.90;99.90;;;5.75;100.00;99032.91;5013136;28;20409;-80
2022/03/18 03:48:11;;;;;;;243.77;42.20;;;7.00;99.90;;;5.75;100.00;99033.72;5013030;28;20471;-80
2022/03/18 03:50:42;;;;;;;215.18;41.13;;;6.90;99.90;;;5.76;100.00;99037.16;5012614;28;20810;-80
2022/03/18 03:53:09;;;;;;;225.50;42.33;;;6.90;99.90;;;5.74;100.00;99037.34;5011934;28;20599;-80
2022/03/18 03:55:39;;;;;;;226.23;42.00;;;6.90;99.90;;;5.72;100.00;99041.13;5012963;28;20412;-80
2022/03/18 03:58:06;;;;;;;230.35;43.53;;;6.90;99.90;;;5.72;100.00;99031.44;5013017;28;20405;-80
2022/03/18 04:00:33;;;;;;;222.63;40.85;;;6.90;99.90;;;5.71;100.00;99047.41;5012369;28;20762;-80
2022/03/18 04:02:59;;;;;;;199.40;37.47;;;6.90;99.90;;;5.70;100.00;99043.97;5027954;28;20413;-80
2022/03/18 04:05:25;;;;;;;217.63;40.17;;;6.90;99.90;;;5.73;100.00;99046.22;5012557;28;20409;-80
2022/03/18 04:07:52;;;;;;;210.38;38.25;;;6.90;99.90;;;5.73;100.00;99040.16;5012863;28;20887;-80
2022/03/18 04:10:19;;;;;;;249.00;47.63;;;6.90;99.90;;;5.73;100.00;99048.03;5012364;28;20949;-80
2022/03/18 04:12:45;;;;;;;237.80;43.58;;;6.90;99.90;;;5.70;100.00;99046.59;5012675;28;20397;-81
2022/03/18 04:15:11;;;;;;;231.88;45.88;;;6.90;99.90;;;5.71;100.00;99050.03;5012395;28;20414;-80
2022/03/18 04:17:39;;;;;;;250.52;48.33;;;6.80;99.90;;;5.70;100.00;99053.66;5011373;28;20404;-80
2022/03/18 04:20:09;;;;;;;239.82;44.13;;;6.90;99.90;;;5.67;100.00;99059.25;5012395;28;20895;-81
2022/03/18 04:22:35;;;;;;;254.83;44.03;;;6.80;99.90;;;5.67;100.00;99065.34;5012518;28;20430;-80
2022/03/18 04:25:03;;;;;;;259.30;48.78;;;6.90;99.90;;;5.64;100.00;99063.03;5011167;28;20398;-81
2022/03/18 04:27:28;;;;;;;251.80;44.13;;;6.80;99.90;;;5.63;100.00;99071.94;5019070;28;20452;-79
2022/03/18 04:29:54;;;;;;;212.52;40.92;;;6.80;99.90;;;5.62;100.00;99072.94;5012305;28;20499;-81
2022/03/18 04:32:20;;;;;;;230.20;44.10;;;6.80;99.90;;;5.64;100.00;99085.91;5011996;28;20809;-80
2022/03/18 04:34:46;;;;;;;231.13;44.60;;;6.80;99.90;;;5.61;100.00;99076.56;5012333;28;20407;-81
2022/03/18 04:37:12;;;;;;;247.30;48.92;;;6.70;99.90;;;5.56;100.00;99085.97;5011038;28;20912;-82
2022/03/18 04:39:38;;;;;;;224.37;42.20;;;6.70;99.90;;;5.56;100.00;99094.66;5012256;28;20488;-81
2022/03/18 04:42:06;;;;;;;228.45;41.17;;;6.70;99.90;;;5.58;100.00;99094.47;5010629;28;20425;-81
2022/03/18 04:44:32;;;;;;;227.35;42.28;;;6.70;99.90;;;5.59;100.00;99096.09;5012243;28;20512;-80
2022/03/18 04:46:58;;;;;;;228.80;40.07;;;6.70;99.90;;;5.60;100.00;99095.94;5011975;28;20917;-81
2022/03/18 04:49:24;;;;;;;261.25;47.35;;;6.70;99.90;;;5.57;100.00;99095.47;5012018;28;20405;-81
2022/03/18 04:51:50;;;;;;;244.07;45.37;;;6.70;99.90;;;5.55;100.00;99092.22;5011638;28;20413;-81
2022/03/18 04:54:16;;;;;;;260.73;47.28;;;6.70;99.90;;;5.56;100.00;99099.09;5011926;28;20968;-81
2022/03/18 04:59:27;;;;;;;232.30;42.70;;;6.70;99.90;;;5.55;100.00;99106.16;5014581;28;20542;-80
2022/03/18 05:01:53;;;;;;;224.55;40.47;;;6.70;99.90;;;5.56;100.00;99106.97;5009786;28;20409;-80
2022/03/18 05:04:19;;;;;;;248.18;43.25;;;6.70;99.90;;;5.56;100.00;99107.81;5010532;28;20576;-80
2022/03/18 05:06:46;;;;;;;258.40;48.40;;;6.70;99.90;;;5.55;100.00;99119.31;5008816;28;20464;-81
2022/03/18 05:09:13;;;;;;;260.95;46.65;;;6.70;99.90;;;5.52;100.00;99111.75;5011988;28;20412;-80
2022/03/18 05:11:39;;;;;;;266.00;51.78;;;6.70;99.90;;;5.52;100.00;99117.00;5013198;28;20398;-80
2022/03/18 05:14:05;;;;;;;248.23;47.57;;;6.60;99.90;;;5.49;100.00;99129.69;5001873;28;20471;-81
2022/03/18 05:16:33;;;;;;;236.50;49.10;;;6.70;99.90;;;5.47;100.00;99126.41;5011640;28;20448;-81
2022/03/18 05:18:59;;;;;;;260.63;46.57;;;6.60;99.90;;;5.47;100.00;99127.25;5010898;28;20405;-77
2022/03/18 05:21:25;;;;;;;254.52;43.22;;;6.60;99.90;;;5.46;100.00;99128.22;5007369;28;20420;-79
2022/03/18 05:23:52;;;;;;;270.27;47.77;;;6.60;99.90;;;5.50;100.00;99133.94;5008906;28;20890;-79
2022/03/18 05:26:18;;;;;;;245.13;43.07;;;6.60;99.90;;;5.48;100.00;99142.00;5008182;28;21033;-79
2022/03/18 05:28:46;;;;;;;226.30;41.17;;;6.60;99.90;;;5.49;100.00;99138.34;5010424;28;20462;-80
2022/03/18 05:31:12;;;;;;;240.68;43.15;;;6.70;99.90;;;5.51;100.00;99144.25;5010772;28;20485;-79
2022/03/18 05:33:39;;;;;;;240.35;44.45;;;6.70;99.90;;;5.51;100.00;99144.25;5011229;28;20404;-80
2022/03/18 05:36:05;;;;;;;265.63;45.53;;;6.70;99.90;;;5.51;100.00;99144.25;5008462;28;20926;-80
2022/03/18 05:38:32;;;;;;;247.32;47.75;;;6.70;99.90;;;5.49;100.00;99140.19;5015321;28;20779;-79
2022/03/18 05:40:58;;;;;;;272.48;46.97;;;6.60;99.90;;;5.51;100.00;99143.44;5010795;28;20420;-79
2022/03/18 05:43:23;;;;;;;259.15;46.47;;;6.70;99.90;;;5.51;100.00;99148.69;5001289;28;20446;-80
2022/03/18 05:45:49;;;;;;;247.23;42.60;;;6.60;99.90;;;5.50;100.00;99150.50;4999657;28;20430;-80
2022/03/18 05:48:15;;;;;;;242.10;42.63;;;6.60;99.90;;;5.50;100.00;99147.88;5002603;28;20467;-80
2022/03/18 05:50:43;;;;;;;229.25;42.08;;;6.70;99.90;;;5.52;100.00;99145.09;5006063;28;20428;-81
2022/03/18 05:53:09;;;;;;;261.58;47.85;;;6.70;99.90;;;5.52;100.00;99147.72;5008818;28;20464;-74
2022/03/18 05:58:21;;;;;;;316.70;54.03;;;6.60;99.90;;;5.48;100.00;99159.56;5007708;28;25284;-77
2022/03/18 06:00:47;;;;;;;305.25;51.08;;;6.60;99.90;;;5.48;100.00;99164.81;5009074;28;20412;-77
2022/03/18 06:03:14;;;;;;;277.73;46.17;;;6.60;99.90;;;5.47;100.00;99160.56;5010682;28;20609;-77
2022/03/18 06:05:44;;;;;;;307.50;52.97;;;6.60;99.90;;;5.49;100.00;99161.22;5012310;28;20412;-75
2022/03/18 06:13:53;;;;;;;298.33;49.80;;;6.60;99.90;;;5.52;100.00;99173.97;4997623;28;25138;-83
2022/03/18 06:16:18;;;;;;;273.07;47.97;;;6.70;99.90;;;5.53;100.00;99180.88;5010912;28;20487;-83
2022/03/18 06:18:44;;;;;;;260.92;45.80;;;6.60;99.90;;;5.52;100.00;99180.03;5010781;28;20424;-83
2022/03/18 06:21:15;;;;;;;276.67;50.28;;;6.60;99.90;;;5.54;100.00;99178.06;5009695;28;20424;-83
2022/03/18 06:23:41;;;;;;;270.42;55.75;;;6.70;99.90;;;5.48;100.00;99185.84;5010708;28;20488;-82
2022/03/18 06:26:07;;;;;;;279.20;50.22;;;6.60;99.90;;;5.52;100.00;99189.72;5016316;28;20427;-83
2022/03/18 06:28:33;;;;;;;273.98;50.13;;;6.60;99.90;;;5.54;100.00;99188.56;5010745;28;20440;-83
2022/03/18 06:30:59;;;;;;;250.73;46.93;;;6.70;99.90;;;5.57;100.00;99190.03;5010487;28;20516;-84
2022/03/18 06:33:27;;;;;;;256.13;47.22;;;6.70;99.90;;;5.55;100.00;99189.41;5008239;28;20413;-83
2022/03/18 06:35:53;;;;;;;265.73;50.00;;;6.70;99.90;;;5.60;100.00;99194.94;5009876;28;20867;-83
2022/03/18 06:38:20;;;;;;;279.52;48.92;;;6.70;99.90;;;5.61;100.00;99205.28;5004679;28;20449;-83
2022/03/18 06:40:46;;;;;;;285.30;50.00;;;6.70;99.90;;;5.63;100.00;99202.47;5012758;28;20415;-83
2022/03/18 06:43:12;;;;;;;239.75;44.17;;;6.80;99.90;;;5.66;100.00;99204.75;5013628;28;20443;-82
2022/03/18 06:45:38;;;;;;;295.65;52.65;;;6.80;99.90;;;5.66;100.00;99197.69;5014291;28;20419;-83
2022/03/18 06:48:04;;;;;;;272.45;50.40;;;6.80;99.90;;;5.66;100.00;99202.13;5018466;28;20948;-83
2022/03/18 06:50:30;;;;;;;247.88;54.40;;;6.80;99.90;;;5.58;100.00;99202.16;5013575;28;20436;-83
2022/03/18 06:52:56;;;;;;;254.40;46.47;;;6.70;99.90;;;5.66;100.00;99202.13;5021623;28;20412;-82
2022/03/18 06:55:24;;;;;;;249.63;47.93;;;6.80;99.90;;;5.68;100.00;99203.59;5026728;28;20494;-83
2022/03/18 06:57:50;;;;;;;258.90;48.60;;;6.80;99.90;;;5.71;100.00;99210.31;5012475;28;20425;-83
2022/03/18 07:00:16;;;;;;;295.83;54.72;;;6.80;99.90;;;5.69;100.00;99205.22;5012460;28;20921;-82
2022/03/18 07:02:42;;;;;;;300.33;51.97;;;6.80;99.90;;;5.70;100.00;99211.28;5013157;28;20455;-83
2022/03/18 07:05:09;;;;;;;276.08;51.42;;;6.80;99.90;;;5.73;100.00;99217.00;5026771;23;20456;-75
2022/03/18 07:07:35;;;;;;;276.83;50.83;;;6.80;99.90;;;5.74;100.00;99216.00;5012798;28;20404;-75
2022/03/18 07:10:01;;;;;;;230.00;43.40;;;6.90;99.90;;;5.77;100.00;99215.69;5013095;28;20417;-75
2022/03/18 07:12:28;;;;;;;254.70;45.72;;;6.90;99.90;;;5.81;100.00;99221.38;5012095;28;20408;-75
2022/03/18 07:14:54;;;;;;;251.48;49.40;;;6.90;99.90;;;5.82;100.00;99223.03;5013606;28;20905;-75
2022/03/18 07:20:07;;;;;;;285.50;51.60;;;6.90;99.90;;;5.85;100.00;99225.31;5013326;28;25086;-74
2022/03/18 07:22:33;;;;;;;262.52;49.13;;;6.90;99.90;;;5.89;100.00;99231.88;5013343;28;20410;-74
2022/03/18 07:24:59;;;;;;;296.77;56.50;;;7.00;99.90;;;5.88;100.00;99230.22;5013504;28;20853;-74
2022/03/18 07:27:25;;;;;;;259.10;48.40;;;7.00;99.90;;;5.94;100.00;99234.78;5013336;28;20462;-74
2022/03/18 07:29:52;;;;;;;268.53;50.27;;;7.10;99.90;;;5.99;100.00;99235.09;5013342;28;20431;-74
2022/03/18 07:32:18;;;;;;;262.52;48.92;;;7.10;99.90;;;6.05;100.00;99236.19;5013547;28;20911;-74
2022/03/18 07:34:44;;;;;;;259.90;50.90;;;7.20;99.90;;;6.09;100.00;99233.00;5013771;28;20400;-74
2022/03/18 07:37:09;;;;;;;215.75;44.67;;;7.20;99.90;;;6.14;100.00;99235.13;5013676;28;20451;-74
2022/03/18 07:39:35;;;;;;;261.55;49.45;;;7.20;99.90;;;6.16;100.00;99230.53;5015082;28;20415;-75
2022/03/18 07:42:01;;;;;;;258.93;53.17;;;7.30;99.90;;;6.22;100.00;99235.88;5014769;28;20428;-74
2022/03/18 07:44:27;;;;;;;274.10;59.72;;;7.30;99.90;;;6.26;100.00;99241.59;5018034;28;20438;-75
2022/03/18 07:46:55;;;;;;;256.52;57.33;;;7.30;99.90;;;6.32;100.00;99240.06;5012111;28;20441;-73
2022/03/18 07:49:21;;;;;;;276.15;60.92;;;7.40;99.90;;;6.34;100.00;99240.69;5012876;28;20879;-73
2022/03/18 07:51:47;;;;;;;286.10;60.42;;;7.40;99.90;;;6.39;100.00;99238.38;5011678;28;20401;-73
2022/03/18 07:54:13;;;;;;;262.63;61.05;;;7.40;99.90;;;6.50;100.00;99244.00;5012803;28;20397;-73
2022/03/18 07:56:40;;;;;;;259.73;58.28;;;7.50;99.90;;;6.63;100.00;99242.56;5012338;28;20452;-72
2022/03/18 07:59:05;;;;;;;249.10;57.30;;;7.60;99.90;;;6.69;100.00;99247.13;5011740;28;20835;-72
2022/03/18 08:01:31;;;;;;;212.52;50.05;;;7.70;99.90;;;6.84;100.00;99253.22;5012265;28;20479;-73
2022/03/18 08:03:59;;;;;;;201.20;49.13;;;7.90;99.90;;;6.93;100.00;99254.72;5012132;28;20508;-74
2022/03/18 08:06:24;;;;;;;202.38;53.10;;;8.00;99.90;;;6.93;100.00;99258.19;5012587;28;20833;-75
2022/03/18 08:08:50;;;;;;;217.13;53.20;;;8.00;99.90;;;7.05;100.00;99257.75;5012800;28;20710;-72
2022/03/18 08:11:16;;;;;;;221.30;57.30;;;8.10;99.90;;;7.02;100.00;99261.53;5012016;28;20408;-72
2022/03/18 08:13:45;;;;;;;228.57;57.20;;;8.10;99.90;;;7.08;100.00;99265.25;5012760;28;20405;-73
2022/03/18 08:16:12;;;;;;;195.13;49.67;;;8.10;99.90;;;7.14;100.00;99267.97;5010531;28;20459;-74
2022/03/18 08:18:38;;;;;;;213.95;52.75;;;8.20;99.90;;;7.15;100.00;99269.59;5010632;28;20959;-73
2022/03/18 08:21:05;;;;;;;227.70;56.70;;;8.20;99.90;;;7.19;100.00;99263.00;5011720;28;20462;-74
2022/03/18 08:23:33;;;;;;;204.50;57.42;;;8.30;99.90;;;7.18;100.00;99271.88;5009197;28;20413;-73
2022/03/18 08:25:59;;;;;;;213.48;58.63;;;8.20;99.90;;;7.21;100.00;99268.91;5009949;28;20914;-72
2022/03/18 08:28:25;;;;;;;209.40;54.30;;;8.30;99.90;;;7.28;100.00;99276.88;5009339;28;20405;-72
2022/03/18 08:30:51;;;;;;;208.30;55.10;;;8.30;99.90;;;7.27;100.00;99286.59;5021387;28;20872;-72
2022/03/18 08:33:17;;;;;;;189.02;56.22;;;8.30;99.90;;;7.25;100.00;99283.31;5030671;28;20409;-72
2022/03/18 08:35:43;;;;;;;194.63;55.73;;;8.30;99.90;;;7.32;100.00;99283.41;5002569;28;20429;-72
2022/03/18 08:38:19;;;;;;;189.00;56.28;;;8.30;99.90;;;7.40;100.00;99280.69;5004415;28;20934;-72
2022/03/18 08:40:45;;;;;;;162.40;53.05;;;8.40;99.90;;;7.40;100.00;99283.31;5008511;28;20405;-74
2022/03/18 08:43:11;;;;;;;158.75;53.20;;;8.40;99.90;;;7.47;100.00;99286.03;5011882;28;20435;-76
2022/03/18 08:45:38;;;;;;;161.95;55.38;;;8.40;99.90;;;7.57;100.00;99286.56;5011715;28;20509;-74
2022/03/18 08:48:06;;;;;;;179.25;52.97;;;8.50;99.90;;;7.69;100.00;99283.25;5006436;28;20800;-74
2022/03/18 08:50:33;;;;;;;127.10;47.13;;;8.70;99.90;;;7.84;100.00;99292.94;5005788;28;20530;-74
2022/03/18 08:52:59;;;;;;;145.05;48.85;;;8.80;99.90;;;7.92;100.00;99279.63;5011755;28;20412;-73
2022/03/18 08:55:27;;;;;;;119.45;49.00;;;8.90;99.90;;;7.85;100.00;99289.28;5009440;28;20417;-74
2022/03/18 08:57:53;;;;;;;119.63;49.03;;;8.90;99.90;;;7.87;100.00;99292.56;5007624;28;20436;-75
2022/03/18 09:00:20;;;;;;;141.95;49.28;;;8.90;99.90;;;7.90;100.00;99294.81;5004207;28;20416;-74
2022/03/18 09:02:47;;;;;;;130.05;48.50;;;8.90;99.90;;;7.88;100.00;99299.47;5008179;28;21010;-74
2022/03/18 09:05:13;;;;;;;113.32;48.10;;;8.90;99.90;;;7.72;100.00;99300.53;5008957;28;20495;-74
2022/03/18 09:07:40;;;;;;;103.75;46.22;;;8.80;99.90;;;7.62;100.00;99307.91;5005251;28;20517;-75
2022/03/18 09:10:08;;;;;;;118.20;42.25;;;8.60;99.90;;;7.78;100.00;99313.78;5011374;28;20462;-75
2022/03/18 09:12:43;;;;;;;131.50;44.78;;;8.80;99.90;;;7.81;100.00;99307.31;5011329;28;20413;-74
2022/03/18 09:15:09;;;;;;;114.70;42.75;;;8.80;99.90;;;7.87;100.00;99311.84;5009906;28;20413;-74
2022/03/18 09:17:35;;;;;;;108.07;42.92;;;8.90;99.90;;;7.91;100.00;99321.00;5003796;28;20434;-74
2022/03/18 09:20:01;;;;;;;96.43;40.28;;;8.90;99.90;;;7.98;100.00;99319.25;5010281;28;20405;-73
2022/03/18 09:22:27;;;;;;;85.93;40.05;;;9.00;99.90;;;7.91;100.00;99320.19;5011271;28;20438;-74
2022/03/18 09:24:53;;;;;;;85.95;41.38;;;8.90;99.90;;;7.89;100.00;99324.84;5008200;28;20412;-74
2022/03/18 09:27:19;;;;;;;85.60;40.65;;;8.90;99.90;;;8.01;100.00;99336.53;5010699;28;20432;-73
2022/03/18 09:29:46;;;;;;;76.68;37.10;;;9.00;99.90;;;8.13;100.00;99329.75;5010945;28;20768;-73
2022/03/18 09:32:12;;;;;;;74.68;36.95;;;9.10;99.90;;;8.25;100.00;99338.00;5009906;28;20428;-74
2022/03/18 09:34:38;;;;;;;67.65;36.25;;;9.30;99.90;;;8.31;100.00;99338.09;5010862;28;20451;-74
2022/03/18 09:37:04;;;;;;;64.07;35.42;;;9.30;99.90;;;8.46;100.00;99338.03;5010908;28;20459;-76
2022/03/18 09:39:31;;;;;;;65.63;36.00;;;9.40;99.90;;;8.45;100.00;99331.09;5010865;28;20956;-74
2022/03/18 09:41:56;;;;;;;65.75;35.33;;;9.50;99.90;;;8.46;100.00;99333.56;5010628;28;20425;-75
2022/03/18 09:44:22;;;;;;;60.00;34.28;;;9.40;99.90;;;8.56;100.00;99335.88;5011040;28;20418;-73
2022/03/18 09:46:51;;;;;;;61.00;33.60;;;9.50;99.90;;;8.71;100.00;99338.44;5012397;28;20603;-74
2022/03/18 09:49:19;;;;;;;61.53;34.25;;;9.70;99.90;;;8.82;100.00;99343.19;5010743;28;20424;-73
2022/03/18 09:51:47;;;;;;;58.35;34.30;;;9.80;99.90;;;8.76;100.00;99344.78;5020783;28;20460;-72
2022/03/18 09:54:14;;;;;;;57.53;33.65;;;9.70;99.90;;;8.88;100.00;99343.22;5014773;28;20405;-73
2022/03/18 09:56:42;;;;;;;58.65;33.22;;;9.80;99.90;;;8.93;100.00;99340.84;5026857;28;20457;-74
2022/03/18 09:59:09;;;;;;;57.33;33.95;;;9.90;99.90;;;9.18;100.00;99345.66;5016022;28;20902;-74
2022/03/18 10:01:35;;;;;;;55.03;33.28;;;10.10;99.90;;;9.43;100.00;99346.03;5020746;28;20423;-73
2022/03/18 10:04:07;;;;;;;50.70;31.17;;;10.30;99.90;;;9.68;100.00;99332.13;5023303;28;20411;-73
2022/03/18 10:06:34;;;;;;;49.33;31.00;;;10.60;99.90;;;9.91;100.00;99342.38;5013675;28;20415;-73
2022/03/18 10:09:01;;;;;;;49.33;31.63;;;10.80;99.90;;;10.09;100.00;99345.25;5025841;28;20448;-74
2022/03/18 10:11:32;;;;;;;53.55;30.85;;;11.00;99.90;;;10.12;100.00;99345.88;5010507;28;20397;-73
2022/03/18 10:14:03;;;;;;;50.15;30.73;;;11.20;99.90;;;10.29;100.00;99368.38;5022223;28;20421;-76
2022/03/18 10:16:36;;;;;;;50.90;31.42;;;11.20;99.90;;;10.19;100.00;99349.41;5013503;28;20401;-72
2022/03/18 10:19:08;;;;;;;46.95;30.77;;;11.20;99.90;;;10.36;100.00;99355.97;5019868;28;20909;-74
2022/03/18 10:21:48;;;;;;;46.20;29.05;;;11.40;99.90;;;10.44;100.00;99348.66;5018644;28;20520;-73
2022/03/18 10:24:14;;;;;;;46.60;29.73;;;11.40;99.90;;;10.50;100.00;99349.66;5015427;28;20404;-73
2022/03/18 10:26:41;;;;;;;48.75;30.23;;;11.40;99.90;;;10.61;100.00;99358.81;5016172;28;20415;-72
2022/03/18 10:29:11;;;;;;;53.20;31.90;;;11.50;99.90;;;10.69;100.00;99355.97;5004771;28;20436;-74